Terminal Aerodrome Forecast
Issued by NWS

Home | Current Version | Previous Version | Graphics & Text | Print | Product List | Glossary On
Versions: 1 2 3 4 5 6 7 8 9 10 11 12 13 14 15 16 17 18 19 20 21 22 23
401
FTUS43 KFGF 082148 AAB
TAFBJI
TAF AMD
KBJI 082148Z 0822/0918 28012KT P6SM -SHSN OVC015
     FM090100 33016G24KT P6SM OVC015
     FM090700 33011KT P6SM BKN040
     FM090800 33011KT P6SM BKN015
     FM091300 33007KT P6SM BKN030
     FM091400 32006KT P6SM SCT035
     FM091700 29006KT P6SM SCT060=

USA.gov is the U.S. government's official web portal to all federal, state and local government web resources and services.